Time;durP1;ratioP1;P1;durP2;ratioP2;P2;SDS_P1;SDS_P2;PMS_P1;PMS_P2;Temp;Humidity;BMP_temperature;BMP_pressure;BME280_temperature;BME280_humidity;BME280_pressure;Samples;Min_cycle;Max_cycle;Signal;HPM_P1;HPM_P2
2022/04/30 00:00:19;;;;;;;11.50;4.57;;;;;;;18.31;23.43;101771.97;5052857;28;20421;-71
2022/04/30 00:02:45;;;;;;;14.07;4.55;;;;;;;18.16;23.33;101771.91;5052284;28;20079;-71
2022/04/30 00:05:12;;;;;;;10.32;3.80;;;;;;;18.14;23.50;101770.41;5052363;28;20045;-71
2022/04/30 00:07:38;;;;;;;10.80;4.47;;;;;;;18.00;23.70;101766.63;5051837;28;20123;-71
2022/04/30 00:10:06;;;;;;;13.00;4.70;;;;;;;18.06;24.04;101769.47;5050487;28;20041;-70
2022/04/30 00:12:32;;;;;;;12.50;4.57;;;;;;;18.08;24.04;101763.84;5051842;28;20063;-71
2022/04/30 00:14:59;;;;;;;12.05;4.53;;;;;;;17.99;23.98;101763.06;5052245;28;20061;-71
2022/04/30 00:17:25;;;;;;;12.00;3.72;;;;;;;17.97;23.99;101761.56;5051409;28;20436;-71
2022/04/30 00:19:52;;;;;;;8.30;3.92;;;;;;;17.87;24.19;101764.53;5052001;28;20096;-70
2022/04/30 00:22:18;;;;;;;11.40;4.10;;;;;;;17.98;24.17;101757.81;5051321;28;20099;-71
2022/04/30 00:24:45;;;;;;;13.88;4.03;;;;;;;17.95;23.95;101761.72;5051682;28;20434;-71
2022/04/30 00:27:14;;;;;;;12.52;3.80;;;;;;;17.74;24.36;101764.31;5050584;28;20137;-71
2022/04/30 00:29:41;;;;;;;9.40;4.28;;;;;;;17.80;24.40;101763.59;5051596;28;20045;-71
2022/04/30 00:32:07;;;;;;;11.38;4.43;;;;;;;17.68;23.91;101757.72;5044211;28;20041;-71
2022/04/30 00:34:34;;;;;;;15.02;4.05;;;;;;;17.40;24.19;101764.72;5051930;28;20044;-70
2022/04/30 00:37:03;;;;;;;14.85;4.45;;;;;;;17.43;24.17;101750.81;5051934;28;20087;-71
2022/04/30 00:39:30;;;;;;;12.90;3.80;;;;;;;;;;5050437;28;20053;-71
2022/04/30 00:41:57;;;;;;;8.80;3.65;;;;;;;17.40;23.84;101757.44;5051982;28;20124;-71
2022/04/30 00:44:24;;;;;;;9.55;3.63;;;;;;;16.98;24.18;101757.84;5050294;28;20072;-71
2022/04/30 00:46:51;;;;;;;19.58;4.47;;;;;;;17.26;24.50;101750.03;5052954;28;20128;-71
2022/04/30 00:49:17;;;;;;;9.57;4.30;;;;;;;17.03;24.34;101753.56;5053569;28;20075;-71
2022/04/30 00:51:44;;;;;;;8.98;4.28;;;;;;;17.16;24.60;101750.25;5052203;28;20128;-71
2022/04/30 00:54:12;;;;;;;12.43;4.13;;;;;;;17.17;24.68;101746.56;5056190;28;20049;-71
2022/04/30 00:56:45;;;;;;;11.60;3.92;;;;;;;17.19;24.89;101747.19;5056121;28;20041;-71
2022/04/30 00:59:17;;;;;;;16.63;4.60;;;;;;;17.18;25.03;101750.09;5054663;28;20132;-71
2022/04/30 01:01:45;;;;;;;8.40;3.88;;;;;;;17.22;25.07;101752.25;5054961;28;20433;-71
2022/04/30 01:04:13;;;;;;;10.25;4.72;;;;;;;17.20;24.95;101750.75;5056598;28;20044;-71
2022/04/30 01:07:12;;;;;;;11.98;4.80;;;;;;;17.26;24.85;101750.88;5056961;28;20103;-71
2022/04/30 01:09:42;;;;;;;9.18;4.00;;;;;;;17.28;24.99;101745.28;5054759;28;20128;-71
2022/04/30 01:12:10;;;;;;;11.23;4.35;;;;;;;17.27;25.00;101743.63;5055833;28;20059;-71
2022/04/30 01:14:38;;;;;;;12.48;4.85;;;;;;;17.36;24.77;101742.53;5055488;28;20166;-71
2022/04/30 01:17:10;;;;;;;15.20;4.47;;;;;;;17.35;25.05;101747.13;5055682;28;20079;-71
2022/04/30 01:19:39;;;;;;;14.18;4.63;;;;;;;17.18;25.38;101733.84;5055421;28;20069;-71
2022/04/30 01:22:20;;;;;;;14.10;4.32;;;;;;;17.11;25.17;101739.13;5055352;28;20045;-71
2022/04/30 01:24:48;;;;;;;14.70;4.90;;;;;;;17.08;25.44;101734.06;5054304;28;20041;-70
2022/04/30 01:27:16;;;;;;;9.43;4.03;;;;;;;16.94;25.19;101738.38;5053970;28;20053;-71
2022/04/30 01:29:43;;;;;;;10.75;4.10;;;;;;;17.06;25.01;101744.22;5054262;28;20152;-71
2022/04/30 01:37:39;;;;;;;13.07;4.35;;;;;;;17.07;25.64;101738.63;5053278;28;20076;-70
2022/04/30 01:40:10;;;;;;;8.50;4.25;;;;;;;17.02;25.45;101741.03;5052869;28;20131;-69
2022/04/30 01:42:43;;;;;;;10.63;4.15;;;;;;;16.94;24.82;101738.38;5053574;28;20528;-71
2022/04/30 01:45:10;;;;;;;8.93;3.38;;;;;;;16.91;25.04;101736.00;5053764;28;20049;-71
2022/04/30 01:47:40;;;;;;;10.68;3.67;;;;;;;16.97;24.87;101732.59;5053981;28;20120;-71
2022/04/30 01:50:08;;;;;;;11.13;3.40;;;;;;;16.82;24.67;101728.97;5052863;28;20127;-70
2022/04/30 01:52:35;;;;;;;8.70;3.00;;;;;;;16.75;24.18;101730.66;5053294;28;20119;-70
2022/04/30 01:55:02;;;;;;;13.32;3.65;;;;;;;16.69;24.20;101728.69;5053381;28;20113;-71
2022/04/30 01:57:29;;;;;;;10.07;3.38;;;;;;;16.95;24.02;101725.66;5046993;28;20040;-71
2022/04/30 01:59:57;;;;;;;10.27;2.83;;;;;;;16.84;24.50;101718.78;5052769;28;20048;-71
2022/04/30 02:02:29;;;;;;;10.98;3.70;;;;;;;16.86;24.72;101725.72;5049296;28;20052;-71
2022/04/30 02:04:59;;;;;;;9.43;3.35;;;;;;;16.87;24.70;101721.13;5052071;28;20415;-71
2022/04/30 02:07:28;;;;;;;9.95;3.25;;;;;;;16.83;24.49;101725.22;5051663;28;20132;-71
2022/04/30 02:09:56;;;;;;;9.93;3.47;;;;;;;16.79;24.95;101724.72;5051556;28;20382;-71
2022/04/30 02:12:25;;;;;;;11.32;3.47;;;;;;;16.81;25.22;101727.25;5050803;28;20154;-71
2022/04/30 02:14:54;;;;;;;9.32;3.72;;;;;;;16.76;25.57;101722.38;5047788;28;20470;-71
2022/04/30 02:17:25;;;;;;;15.43;4.10;;;;;;;16.83;25.41;101717.09;5051625;28;20141;-71
2022/04/30 02:22:40;;;;;;;10.55;3.58;;;;;;;16.67;25.47;101710.72;5048342;28;20137;-71
2022/04/30 02:25:09;;;;;;;11.88;4.38;;;;;;;16.77;25.72;101715.09;5050163;28;20464;-71
2022/04/30 02:27:38;;;;;;;8.18;3.47;;;;;;;16.76;25.48;101708.81;5052353;28;20115;-71
2022/04/30 02:30:11;;;;;;;11.93;4.20;;;;;;;16.70;25.70;101714.09;5052375;28;20081;-71
2022/04/30 02:32:39;;;;;;;10.32;3.80;;;;;;;16.65;26.10;101709.22;5049256;28;20075;-71
2022/04/30 02:35:08;;;;;;;10.98;4.00;;;;;;;16.67;25.93;101699.03;5051655;28;20041;-71
2022/04/30 02:37:35;;;;;;;10.75;4.30;;;;;;;16.71;26.08;101699.53;5051440;28;20139;-71
2022/04/30 02:40:03;;;;;;;8.40;4.10;;;;;;;16.73;26.28;101700.22;5052197;28;20064;-71
2022/04/30 02:42:29;;;;;;;15.38;4.10;;;;;;;16.68;26.17;101695.31;5051804;28;20098;-71
2022/04/30 02:44:56;;;;;;;7.03;3.47;;;;;;;16.74;26.11;101697.31;5051932;28;20573;-71
2022/04/30 02:47:23;;;;;;;14.90;4.10;;;;;;;16.71;26.36;101689.53;5050193;28;20059;-71
2022/04/30 02:49:49;;;;;;;9.77;3.35;;;;;;;16.79;25.98;101694.09;5050045;28;20103;-71
2022/04/30 02:52:16;;;;;;;9.05;3.78;;;;;;;16.78;26.13;101685.13;5049071;28;20092;-71
2022/04/30 02:54:42;;;;;;;9.15;4.00;;;;;;;16.72;26.23;101679.56;5048034;28;20068;-71
2022/04/30 02:57:09;;;;;;;12.13;3.85;;;;;;;16.55;26.13;101690.47;5051525;28;20159;-71
2022/04/30 03:02:31;;;;;;;9.82;4.10;;;;;;;16.56;25.58;101686.72;5048873;28;20048;-71
2022/04/30 03:04:58;;;;;;;10.32;3.85;;;;;;;16.49;26.46;101690.28;5050838;28;20068;-71
2022/04/30 03:07:24;;;;;;;8.20;3.80;;;;;;;16.53;26.66;101678.94;5050051;28;20501;-71
2022/04/30 03:09:51;;;;;;;15.60;4.75;;;;;;;16.63;26.68;101676.88;5051553;28;20098;-71
2022/04/30 03:12:17;;;;;;;14.27;3.95;;;;;;;16.57;26.50;101674.88;5050258;28;20055;-71
2022/04/30 03:14:44;;;;;;;11.63;3.85;;;;;;;16.62;26.58;101669.78;5051551;28;20101;-71
2022/04/30 03:22:41;;;;;;;14.27;3.80;;;;;;;16.21;27.06;101665.53;5051844;28;20124;-71
2022/04/30 03:25:08;;;;;;;14.20;3.85;;;;;;;16.09;26.92;101668.63;5051356;28;20516;-71
2022/04/30 03:27:34;;;;;;;9.18;4.03;;;;;;;16.02;26.85;101662.22;5051635;28;20052;-70
2022/04/30 03:30:02;;;;;;;18.20;3.88;;;;;;;15.75;27.00;101666.16;5050240;28;20069;-71
2022/04/30 03:32:28;;;;;;;9.30;3.95;;;;;;;15.73;27.03;101667.31;5050893;28;20080;-71
2022/04/30 03:34:54;;;;;;;11.82;4.18;;;;;;;15.65;27.42;101665.47;5050779;28;20075;-71
2022/04/30 03:37:21;;;;;;;13.73;4.10;;;;;;;15.61;27.41;101673.06;5051237;28;20151;-71
2022/04/30 03:39:50;;;;;;;10.95;4.10;;;;;;;15.93;27.33;101676.75;5051782;28;20044;-70
2022/04/30 03:42:17;;;;;;;11.15;3.95;;;;;;;15.54;27.80;101668.50;5051674;28;20071;-70
2022/04/30 03:44:43;;;;;;;12.40;4.47;;;;;;;15.36;27.67;101671.34;5052490;28;20075;-70
2022/04/30 03:47:10;;;;;;;17.50;3.80;;;;;;;15.17;27.95;101672.53;5052503;28;20079;-70
2022/04/30 03:49:37;;;;;;;10.77;4.07;;;;;;;15.33;27.87;101669.00;5047770;28;20048;-71
2022/04/30 03:52:04;;;;;;;10.00;3.45;;;;;;;15.66;27.45;101670.72;5051909;28;20131;-71
2022/04/30 03:54:30;;;;;;;13.88;4.30;;;;;;;15.77;27.56;101669.50;5050712;28;20127;-70
2022/04/30 03:56:56;;;;;;;10.18;4.00;;;;;;;15.62;27.76;101671.19;5050861;28;20154;-71
2022/04/30 03:59:23;;;;;;;13.85;4.00;;;;;;;15.66;27.63;101673.41;5051080;28;20489;-71
2022/04/30 04:01:49;;;;;;;12.98;4.28;;;;;;;15.63;27.84;101678.31;5051376;28;20132;-71
2022/04/30 04:04:16;;;;;;;12.07;3.80;;;;;;;15.05;28.52;101672.03;5051737;28;20133;-71
2022/04/30 04:06:43;;;;;;;12.55;3.92;;;;;;;15.29;28.32;101664.94;5050772;28;20045;-71
2022/04/30 04:09:09;;;;;;;11.82;4.05;;;;;;;14.88;29.04;101673.84;5050135;28;20140;-71
2022/04/30 04:11:36;;;;;;;11.55;3.97;;;;;;;15.19;28.61;101671.38;5051387;28;20132;-71
2022/04/30 04:19:32;;;;;;;15.10;4.35;;;;;;;15.63;28.32;101657.53;5050576;28;20500;-70
2022/04/30 04:22:00;;;;;;;11.30;5.25;;;;;;;15.65;28.17;101655.50;5050517;28;20067;-70
2022/04/30 04:27:12;;;;;;;13.77;3.72;;;;;;;14.92;28.59;101668.97;5053495;28;20091;-70
2022/04/30 04:29:45;;;;;;;10.65;3.60;;;;;;;14.66;29.05;101664.47;5054995;28;20044;-71
2022/04/30 04:32:11;;;;;;;12.10;3.65;;;;;;;15.07;28.49;101667.28;5053144;28;20128;-70
2022/04/30 04:34:38;;;;;;;13.88;3.95;;;;;;;15.20;28.47;101669.50;5054711;28;20485;-70
2022/04/30 04:37:04;;;;;;;11.52;4.55;;;;;;;15.39;28.17;101671.88;5054847;28;20117;-70
2022/04/30 04:39:31;;;;;;;14.27;5.03;;;;;;;15.55;28.09;101668.31;5054912;28;20128;-70
2022/04/30 04:41:57;;;;;;;11.30;3.63;;;;;;;15.63;27.92;101668.34;5054075;28;20132;-70
2022/04/30 04:44:24;;;;;;;9.32;4.03;;;;;;;15.55;28.07;101671.03;5054044;28;20045;-70
2022/04/30 04:46:51;;;;;;;9.15;4.13;;;;;;;15.65;28.10;101676.31;5054278;28;20128;-70
2022/04/30 04:49:17;;;;;;;10.38;4.18;;;;;;;15.57;28.03;101666.31;5054020;28;20061;-70
2022/04/30 04:51:43;;;;;;;8.50;3.28;;;;;;;15.40;28.17;101670.03;5053069;28;20124;-70
2022/04/30 04:54:10;;;;;;;10.48;2.88;;;;;;;15.34;28.20;101673.41;5052558;28;20065;-70
2022/04/30 04:56:37;;;;;;;17.50;3.45;;;;;;;15.46;28.18;101672.88;5053111;28;20151;-71
2022/04/30 04:59:03;;;;;;;13.70;3.80;;;;;;;15.75;28.23;101673.41;5052951;28;20064;-71
2022/04/30 05:01:29;;;;;;;12.13;3.95;;;;;;;15.68;28.09;101674.09;5053479;28;20136;-70
2022/04/30 05:03:56;;;;;;;15.73;4.38;;;;;;;15.75;28.06;101670.72;5055543;28;20068;-70
2022/04/30 05:06:22;;;;;;;14.20;3.72;;;;;;;15.79;27.99;101672.06;5053749;28;20047;-71
2022/04/30 05:08:49;;;;;;;5.88;3.50;;;;;;;15.76;28.24;101667.81;5053514;28;20049;-71
2022/04/30 05:11:22;;;;;;;12.65;3.60;;;;;;;15.84;27.88;101680.50;5053208;28;20497;-70
2022/04/30 05:13:48;;;;;;;17.77;5.15;;;;;;;15.99;27.77;101678.78;5054013;28;20045;-71
2022/04/30 05:16:15;;;;;;;13.00;3.70;;;;;;;16.16;27.27;101685.00;5053606;28;20055;-71
2022/04/30 05:18:41;;;;;;;17.75;5.60;;;;;;;15.97;27.50;101691.63;5053398;28;20127;-70
2022/04/30 05:21:08;;;;;;;11.80;4.13;;;;;;;15.97;27.42;101694.34;5053158;28;20540;-70
2022/04/30 05:23:34;;;;;;;9.25;3.60;;;;;;;16.05;26.98;101693.47;5054436;28;20056;-70
2022/04/30 05:26:01;;;;;;;11.77;3.30;;;;;;;16.34;26.83;101692.91;5054694;28;20586;-71
2022/04/30 05:28:27;;;;;;;10.45;3.40;;;;;;;16.36;26.81;101690.84;5041849;28;20045;-71
2022/04/30 05:30:53;;;;;;;8.85;3.40;;;;;;;16.45;26.97;101697.09;5053495;28;20059;-71
2022/04/30 05:33:20;;;;;;;10.55;4.13;;;;;;;16.52;27.90;101693.53;5054196;28;20073;-71
2022/04/30 05:35:46;;;;;;;17.92;6.07;;;;;;;16.78;28.97;101693.25;5053117;28;20175;-69
2022/04/30 05:38:13;;;;;;;11.38;5.43;;;;;;;16.38;30.67;101689.66;5049290;28;20051;-71
2022/04/30 05:40:39;;;;;;;10.68;5.72;;;;;;;16.75;30.59;101700.84;5052500;28;20123;-71
2022/04/30 05:43:06;;;;;;;17.63;5.97;;;;;;;16.58;31.82;101697.41;5053051;28;20525;-71
2022/04/30 05:45:32;;;;;;;15.43;5.63;;;;;;;16.97;31.38;101693.81;5054123;28;20132;-71
2022/04/30 05:47:59;;;;;;;20.75;5.70;;;;;;;17.00;31.72;101698.88;5053414;28;20045;-70
2022/04/30 05:50:25;;;;;;;19.67;6.40;;;;;;;17.23;31.38;101693.44;5053788;28;20133;-70
2022/04/30 05:52:52;;;;;;;14.50;5.50;;;;;;;17.14;31.34;101689.97;5053247;28;20045;-70
2022/04/30 05:55:18;;;;;;;17.55;5.80;;;;;;;17.25;31.08;101694.97;5051913;28;20053;-71
2022/04/30 05:57:45;;;;;;;12.25;5.43;;;;;;;17.41;30.58;101699.47;5052202;28;20120;-71
2022/04/30 06:00:12;;;;;;;13.90;5.57;;;;;;;17.35;30.57;101700.19;5053251;28;20051;-70
2022/04/30 06:02:38;;;;;;;16.45;4.90;;;;;;;17.17;30.57;101694.19;5051664;28;20111;-71
2022/04/30 06:05:06;;;;;;;12.60;4.88;;;;;;;17.49;30.13;101703.97;5053060;28;20118;-70
2022/04/30 06:07:33;;;;;;;12.60;4.70;;;;;;;17.22;30.73;101700.75;5053342;28;20040;-70
2022/04/30 06:09:59;;;;;;;16.48;5.63;;;;;;;17.29;30.36;101709.84;5046980;28;20051;-70
2022/04/30 06:12:25;;;;;;;14.00;5.78;;;;;;;17.68;29.73;101714.31;5052210;28;20170;-70
2022/04/30 06:14:52;;;;;;;13.38;4.65;;;;;;;17.76;29.36;101708.81;5051899;28;20154;-71
2022/04/30 06:17:18;;;;;;;14.80;5.00;;;;;;;17.80;29.69;101709.28;5050604;28;20136;-71
2022/04/30 06:19:45;;;;;;;14.88;4.40;;;;;;;17.64;29.68;101720.28;5052455;28;20041;-70
2022/04/30 06:22:11;;;;;;;16.02;5.47;;;;;;;17.57;29.69;101718.31;5053364;28;20132;-70
2022/04/30 06:24:38;;;;;;;10.10;5.07;;;;;;;17.87;29.36;101717.56;5050083;28;20045;-70
2022/04/30 06:27:05;;;;;;;11.95;4.85;;;;;;;17.65;29.58;101716.53;5052218;28;20053;-70
2022/04/30 06:29:32;;;;;;;13.15;4.72;;;;;;;17.40;29.96;101715.91;5052602;28;20525;-70
2022/04/30 06:31:58;;;;;;;25.23;5.30;;;;;;;17.37;30.21;101719.81;5051505;28;20045;-69
2022/04/30 06:34:25;;;;;;;16.45;4.82;;;;;;;16.80;31.02;101722.88;5051922;28;20053;-69
2022/04/30 06:36:51;;;;;;;16.98;4.80;;;;;;;17.34;30.34;101721.03;5051664;28;20068;-70
2022/04/30 06:39:18;;;;;;;10.15;4.55;;;;;;;17.18;30.34;101712.13;5052536;28;20479;-70
2022/04/30 06:41:45;;;;;;;11.23;4.50;;;;;;;16.72;30.87;101718.34;5051894;28;20533;-70
2022/04/30 06:44:11;;;;;;;15.10;3.97;;;;;;;17.25;30.05;101707.69;5052457;28;20075;-70
2022/04/30 06:46:37;;;;;;;14.02;4.57;;;;;;;16.74;30.37;101718.97;5052686;28;20140;-69
2022/04/30 06:49:04;;;;;;;14.38;3.92;;;;;;;17.01;30.14;101722.25;5052375;28;20047;-70
2022/04/30 06:51:30;;;;;;;16.05;5.22;;;;;;;16.77;30.50;101725.91;5051147;28;20055;-70
2022/04/30 06:59:28;;;;;;;17.60;5.13;;;;;;;16.83;30.40;101719.81;5051040;28;20475;-70
2022/04/30 07:02:01;;;;;;;10.55;4.88;;;;;;;16.71;30.25;101724.75;5051390;28;20044;-69
2022/04/30 07:04:29;;;;;;;11.57;4.65;;;;;;;17.08;29.84;101724.06;5051471;28;20188;-70
2022/04/30 07:06:56;;;;;;;11.85;4.22;;;;;;;17.83;29.02;101717.06;5051915;28;20119;-70
2022/04/30 07:09:22;;;;;;;30.67;7.85;;;;;;;17.78;28.79;101708.63;5051577;28;20128;-70
2022/04/30 07:11:49;;;;;;;14.55;4.50;;;;;;;17.80;28.41;101712.00;5051529;28;20047;-68
2022/04/30 07:14:15;;;;;;;13.85;4.05;;;;;;;18.32;27.77;101716.59;5051939;28;20045;-70
2022/04/30 07:16:42;;;;;;;11.80;3.90;;;;;;;18.58;27.46;101709.81;5051295;28;20136;-70
2022/04/30 07:19:09;;;;;;;15.43;4.22;;;;;;;18.25;28.17;101712.94;5051074;28;20068;-69
2022/04/30 07:21:36;;;;;;;13.52;3.90;;;;;;;18.64;27.54;101720.78;5052325;28;20119;-70
2022/04/30 07:24:02;;;;;;;8.23;4.32;;;;;;;18.68;27.49;101718.53;5052255;28;20057;-70
2022/04/30 07:26:29;;;;;;;14.07;4.57;;;;;;;18.65;27.19;101727.06;5051708;28;20493;-70
2022/04/30 07:28:55;;;;;;;13.05;4.82;;;;;;;19.15;26.47;101726.22;5050602;28;20456;-69
2022/04/30 07:31:22;;;;;;;12.73;4.15;;;;;;;18.46;27.35;101723.88;5051851;28;20053;-70
2022/04/30 07:33:51;;;;;;;10.40;4.25;;;;;;;18.29;27.51;101723.22;5052953;28;20041;-70
2022/04/30 07:36:18;;;;;;;11.25;4.50;;;;;;;18.92;26.56;101725.50;5052675;28;20103;-69
2022/04/30 07:38:45;;;;;;;11.95;3.83;;;;;;;18.64;26.86;101728.94;5050916;28;20049;-69
2022/04/30 07:41:11;;;;;;;14.75;4.90;;;;;;;18.74;26.46;101734.06;5050298;28;20063;-69
2022/04/30 07:43:38;;;;;;;12.38;4.55;;;;;;;19.40;26.06;101728.56;5050618;28;20148;-70
2022/04/30 07:46:04;;;;;;;15.68;4.20;;;;;;;19.23;26.17;101741.59;5051277;28;20041;-68
2022/04/30 07:48:37;;;;;;;19.35;4.95;;;;;;;18.99;26.51;101737.34;5051088;28;20049;-70
2022/04/30 07:51:04;;;;;;;15.02;4.50;;;;;;;19.45;25.84;101743.28;5051372;28;20131;-70
2022/04/30 07:53:30;;;;;;;8.98;4.03;;;;;;;19.40;25.82;101734.00;5050029;28;20063;-70
2022/04/30 07:55:57;;;;;;;9.88;3.80;;;;;;;19.87;25.43;101735.31;5050472;28;20482;-69
2022/04/30 07:58:25;;;;;;;11.90;4.20;;;;;;;19.09;25.89;101739.75;5050665;28;20128;-69
2022/04/30 08:00:51;;;;;;;10.70;3.67;;;;;;;19.75;25.16;101739.59;5048949;28;20044;-69
2022/04/30 08:03:17;;;;;;;12.80;3.85;;;;;;;20.47;24.05;101735.75;5051431;28;20577;-69
2022/04/30 08:05:44;;;;;;;10.93;4.05;;;;;;;20.62;23.79;101744.59;5050773;28;20537;-69
2022/04/30 08:08:10;;;;;;;7.75;4.00;;;;;;;20.93;23.59;101733.19;5050378;28;20053;-69
2022/04/30 08:10:37;;;;;;;8.23;4.05;;;;;;;21.25;23.30;101737.13;5049832;28;20073;-69
2022/04/30 08:13:03;;;;;;;12.98;4.10;;;;;;;20.18;25.01;101735.75;5051261;28;20128;-69
2022/04/30 08:15:30;;;;;;;12.30;3.83;;;;;;;21.33;23.50;101739.66;5050580;28;20048;-70
2022/04/30 08:17:56;;;;;;;7.47;3.67;;;;;;;21.06;23.36;101733.25;5050665;28;20532;-69
2022/04/30 08:20:23;;;;;;;11.02;3.72;;;;;;;21.72;22.72;101740.72;5050154;28;20129;-70
2022/04/30 08:22:50;;;;;;;10.15;4.43;;;;;;;21.57;22.82;101738.22;5050953;28;20116;-70
2022/04/30 08:25:16;;;;;;;12.35;6.03;;;;;;;21.81;22.40;101735.94;5050786;28;20128;-69
2022/04/30 08:27:43;;;;;;;17.08;8.23;;;;;;;22.03;22.55;101736.56;5049898;28;20049;-68
2022/04/30 08:30:10;;;;;;;10.82;3.85;;;;;;;22.02;22.15;101738.44;5051123;28;20052;-68
2022/04/30 08:32:37;;;;;;;10.85;4.50;;;;;;;22.27;22.15;101738.59;5049160;28;20063;-69
2022/04/30 08:35:04;;;;;;;11.98;4.82;;;;;;;21.84;22.26;101743.72;5041029;28;20227;-70
2022/04/30 08:37:50;;;;;;;13.52;4.57;;;;;;;20.92;23.01;101745.16;5051891;28;20458;-68
2022/04/30 08:40:17;;;;;;;8.25;4.40;;;;;;;21.32;22.73;101735.25;5047758;28;20165;-69
2022/04/30 08:42:44;;;;;;;18.23;5.18;;;;;;;20.43;23.63;101738.03;5051561;28;20494;-70
2022/04/30 08:45:10;;;;;;;15.75;4.82;;;;;;;19.80;24.56;101735.25;5051356;28;20063;-70
2022/04/30 08:47:41;;;;;;;11.50;4.25;;;;;;;19.85;24.46;101730.06;5050612;28;20135;-70
2022/04/30 08:50:12;;;;;;;8.73;4.05;;;;;;;20.49;23.83;101739.09;5048834;28;20144;-70
2022/04/30 08:52:39;;;;;;;12.60;4.17;;;;;;;20.61;23.89;101729.31;5051187;28;20053;-69
2022/04/30 08:55:07;;;;;;;19.90;4.72;;;;;;;20.83;23.73;101728.13;5049252;28;20337;-69
2022/04/30 08:57:34;;;;;;;18.17;5.13;;;;;;;21.03;23.57;101721.91;5049394;28;20136;-70
2022/04/30 09:00:02;;;;;;;12.60;4.68;;;;;;;20.53;24.11;101726.75;5049959;28;20135;-70
2022/04/30 09:02:29;;;;;;;11.25;4.18;;;;;;;20.52;24.37;101719.59;5050845;28;20508;-68
2022/04/30 09:04:55;;;;;;;8.07;3.63;;;;;;;21.12;22.71;101723.44;5051019;28;20045;-69
2022/04/30 09:07:24;;;;;;;13.45;3.30;;;;;;;21.36;22.84;101730.22;5051964;28;20132;-69
2022/04/30 09:09:55;;;;;;;13.07;3.63;;;;;;;21.94;22.05;101716.78;5050886;28;20137;-68
2022/04/30 09:12:23;;;;;;;14.93;3.50;;;;;;;22.25;21.68;101721.56;5050667;28;20048;-68
2022/04/30 09:14:49;;;;;;;7.75;3.33;;;;;;;21.38;22.66;101726.22;5054027;28;20290;-70
2022/04/30 09:17:17;;;;;;;10.25;3.00;;;;;;;21.97;21.91;101716.38;5054002;28;20132;-69
2022/04/30 09:19:53;;;;;;;12.80;3.55;;;;;;;21.79;22.17;101717.03;5052248;28;20060;-69
2022/04/30 09:22:36;;;;;;;9.65;3.60;;;;;;;22.85;21.03;101717.84;5054281;28;20124;-69
2022/04/30 09:25:05;;;;;;;13.90;3.20;;;;;;;23.69;19.98;101717.50;5053589;28;20068;-69
2022/04/30 09:27:52;;;;;;;10.35;2.78;;;;;;;24.13;19.55;101710.16;5052953;28;20041;-69
2022/04/30 09:30:32;;;;;;;7.38;2.97;;;;;;;23.39;20.33;101721.94;5052635;28;20152;-69
2022/04/30 09:33:07;;;;;;;10.27;2.73;;;;;;;23.71;19.65;101720.88;5052230;28;20049;-69
2022/04/30 09:38:39;;;;;;;12.00;2.92;;;;;;;24.46;19.17;101708.16;5070453;28;20072;-69
2022/04/30 09:41:08;;;;;;;12.05;3.50;;;;;;;23.70;19.72;101705.47;5070014;28;20054;-69
2022/04/30 09:43:34;;;;;;;9.38;3.13;;;;;;;23.30;19.61;101709.59;5070292;28;20044;-69
2022/04/30 09:46:06;;;;;;;9.70;3.15;;;;;;;23.30;19.85;101707.69;5070846;28;20044;-70
2022/04/30 09:54:05;;;;;;;12.57;3.50;;;;;;;24.27;19.02;101702.63;5070622;28;20127;-69
2022/04/30 09:56:37;;;;;;;15.50;3.88;;;;;;;24.80;18.31;101699.25;5070291;28;20469;-69
2022/04/30 09:59:09;;;;;;;8.95;3.55;;;;;;;23.88;19.21;101693.75;5070963;28;20463;-70
2022/04/30 10:01:39;;;;;;;9.45;3.30;;;;;;;25.02;18.60;101693.28;5074683;28;20127;-69
2022/04/30 10:04:11;;;;;;;12.02;3.45;;;;;;;24.46;18.48;101692.53;5070632;28;20045;-70
2022/04/30 10:06:46;;;;;;;6.20;3.75;;;;;;;23.97;19.03;101686.91;5070391;28;20505;-69
2022/04/30 10:09:18;;;;;;;16.10;3.75;;;;;;;23.93;18.99;101684.88;5062751;28;20056;-69
2022/04/30 10:11:57;;;;;;;10.10;3.45;;;;;;;24.52;18.32;101686.13;5052877;28;20117;-69
2022/04/30 10:14:43;;;;;;;10.75;4.07;;;;;;;23.67;19.85;101692.22;5052743;28;20071;-69
2022/04/30 10:17:18;;;;;;;13.63;3.70;;;;;;;24.12;19.29;101681.06;5051693;28;20047;-69
2022/04/30 10:20:04;;;;;;;8.45;3.40;;;;;;;24.81;18.18;101680.88;5053050;28;20069;-70
2022/04/30 10:22:31;;;;;;;14.02;3.60;;;;;;;24.62;18.16;101680.09;5052945;28;20051;-69
2022/04/30 10:24:59;;;;;;;10.35;3.13;;;;;;;24.53;19.49;101667.75;5051430;28;20496;-69
2022/04/30 10:27:43;;;;;;;8.93;2.83;;;;;;;24.67;19.26;101674.72;5050682;28;20075;-70
2022/04/30 10:30:27;;;;;;;10.50;3.15;;;;;;;24.71;18.79;101669.63;5049281;28;20127;-69
2022/04/30 10:32:58;;;;;;;11.88;3.40;;;;;;;24.23;19.13;101670.41;5052975;28;20040;-70
2022/04/30 10:35:35;;;;;;;13.02;3.50;;;;;;;24.10;19.20;101668.66;5052002;28;20048;-70
2022/04/30 10:38:28;;;;;;;10.07;3.25;;;;;;;24.07;19.01;101671.84;5047089;28;20098;-69
2022/04/30 10:41:02;;;;;;;13.15;3.28;;;;;;;23.79;19.64;101667.72;5057683;28;20045;-70
2022/04/30 10:43:37;;;;;;;8.98;3.42;;;;;;;23.34;20.69;101667.03;5052076;28;20504;-70
2022/04/30 10:46:05;;;;;;;13.63;3.33;;;;;;;23.58;20.59;101662.63;5052316;28;20132;-69
2022/04/30 10:48:33;;;;;;;12.15;3.72;;;;;;;22.99;20.28;101661.97;5052390;28;20059;-70
2022/04/30 10:51:12;;;;;;;7.93;3.58;;;;;;;22.95;20.47;101660.75;5050032;28;20049;-69
2022/04/30 10:53:43;;;;;;;13.40;4.68;;;;;;;23.62;19.95;101658.34;5051425;28;20557;-69
2022/04/30 10:56:11;;;;;;;10.30;4.80;;;;;;;24.28;19.49;101648.63;5050945;28;20087;-69
2022/04/30 10:58:39;;;;;;;13.65;3.28;;;;;;;23.91;20.33;101648.59;5051267;28;20072;-69
2022/04/30 11:01:12;;;;;;;22.05;3.15;;;;;;;24.10;19.43;101646.72;5051670;28;20136;-69
2022/04/30 11:03:41;;;;;;;14.27;3.53;;;;;;;24.57;18.52;101649.75;5051970;28;20049;-68
2022/04/30 11:06:18;;;;;;;8.57;3.08;;;;;;;24.83;17.96;101643.91;5052004;28;20055;-69
2022/04/30 11:09:07;;;;;;;7.97;3.60;;;;;;;25.49;17.52;101643.97;5050392;28;20393;-70
2022/04/30 11:11:36;;;;;;;5.05;3.13;;;;;;;25.01;17.75;101642.19;5050665;28;20473;-69
2022/04/30 11:14:03;;;;;;;10.55;3.90;;;;;;;23.65;18.78;101633.25;5054091;28;20125;-69
2022/04/30 11:16:31;;;;;;;15.52;3.55;;;;;;;23.45;19.03;101641.66;5045024;28;20052;-69
2022/04/30 11:19:10;;;;;;;8.85;3.47;;;;;;;23.46;18.66;101640.56;5067392;28;20041;-69
2022/04/30 11:21:39;;;;;;;9.23;3.70;;;;;;;23.56;18.63;101629.94;5051693;28;20045;-69
2022/04/30 11:24:07;;;;;;;14.88;3.50;;;;;;;24.68;17.60;101627.00;5051400;28;20123;-69
2022/04/30 11:26:41;;;;;;;7.32;3.50;;;;;;;25.42;17.08;101626.75;5050899;28;20136;-69
2022/04/30 11:29:11;;;;;;;16.05;3.85;;;;;;;25.77;16.92;101624.03;5050807;28;20069;-69
2022/04/30 11:31:39;;;;;;;12.27;3.50;;;;;;;25.30;17.07;101619.31;5050871;28;20051;-69
2022/04/30 11:34:12;;;;;;;10.15;3.63;;;;;;;25.53;16.88;101621.25;5050836;28;20049;-68
2022/04/30 11:36:49;;;;;;;11.52;3.65;;;;;;;26.38;16.24;101622.63;5050341;28;20053;-69
2022/04/30 11:39:17;;;;;;;12.07;3.80;;;;;;;25.44;16.95;101625.41;5050733;28;20068;-69
2022/04/30 11:41:45;;;;;;;11.23;4.38;;;;;;;25.86;16.56;101614.34;5051078;28;20091;-69
2022/04/30 11:44:14;;;;;;;14.35;3.95;;;;;;;25.76;16.83;101611.38;5049848;28;20045;-69
2022/04/30 11:46:42;;;;;;;14.18;4.13;;;;;;;24.23;18.23;101616.44;5051568;28;20049;-69
2022/04/30 11:49:14;;;;;;;12.18;4.28;;;;;;;24.87;17.63;101612.19;5050680;28;20401;-69
2022/04/30 11:52:00;;;;;;;;;;;;;;;24.07;18.83;101601.41;5051125;28;20041;-69
2022/04/30 11:54:28;;;;;;;14.65;4.45;;;;;;;23.50;19.38;101606.19;5049969;28;20348;-70
2022/04/30 11:56:57;;;;;;;14.52;4.72;;;;;;;22.18;20.60;101610.59;5051181;28;20468;-69
2022/04/30 11:59:31;;;;;;;16.08;5.38;;;;;;;22.18;20.72;101605.97;5051413;28;20125;-70
2022/04/30 12:02:03;;;;;;;12.60;4.70;;;;;;;22.86;20.19;101608.16;5051148;28;20041;-70
2022/04/30 12:04:34;;;;;;;;;;;;;;;22.82;20.20;101606.94;5050765;28;20049;-70